Time;durP1;ratioP1;P1;durP2;ratioP2;P2;SDS_P1;SDS_P2;PMS_P1;PMS_P2;Temp;Humidity;BMP_temperature;BMP_pressure;BME280_temperature;BME280_humidity;BME280_pressure;Samples;Min_cycle;Max_cycle;Signal;HPM_P1;HPM_P2
2021/04/27 00:01:03;;;;;;;16.43;4.27;;;1.70;94.30;;;;;;4939281;29;20175;-89
2021/04/27 00:03:29;;;;;;;8.80;4.07;;;1.70;94.70;;;;;;4939908;29;20171;-89
2021/04/27 00:05:54;;;;;;;6.13;3.80;;;1.70;95.10;;;;;;4955403;28;20804;-89
2021/04/27 00:08:20;;;;;;;5.10;3.90;;;1.70;95.70;;;;;;4938282;29;20230;-88
2021/04/27 00:10:46;;;;;;;4.07;3.37;;;1.70;95.30;;;;;;4956176;29;20234;-89
2021/04/27 00:13:11;;;;;;;6.47;3.67;;;1.70;94.50;;;;;;4938819;29;20186;-89
2021/04/27 00:15:37;;;;;;;5.27;3.47;;;1.70;94.70;;;;;;4956045;29;20179;-88
2021/04/27 00:18:03;;;;;;;5.40;3.77;;;1.70;95.40;;;;;;4940081;29;20266;-88
2021/04/27 00:20:29;;;;;;;4.07;3.30;;;1.70;95.40;;;;;;4960054;29;20234;-89
2021/04/27 00:22:55;;;;;;;6.00;3.17;;;1.60;94.40;;;;;;4942905;29;20530;-90
2021/04/27 00:25:21;;;;;;;4.43;3.27;;;1.60;94.00;;;;;;4942584;29;20183;-88
2021/04/27 00:27:50;;;;;;;6.23;3.53;;;1.60;93.90;;;;;;4942482;29;20541;-89
2021/04/27 00:30:17;;;;;;;6.40;3.40;;;1.50;94.00;;;;;;4959890;29;20984;-87
2021/04/27 00:32:43;;;;;;;7.40;3.10;;;1.50;94.20;;;;;;4942347;29;20473;-89
2021/04/27 00:35:10;;;;;;;8.77;3.40;;;1.50;94.50;;;;;;4959887;29;20910;-89
2021/04/27 00:37:36;;;;;;;3.80;3.03;;;1.50;94.60;;;;;;4959984;29;20211;-89
2021/04/27 00:40:02;;;;;;;6.33;3.63;;;1.50;94.80;;;;;;4942507;29;20443;-89
2021/04/27 00:42:33;;;;;;;13.30;3.57;;;1.40;95.50;;;;;;4942168;29;20238;-89
2021/04/27 00:45:00;;;;;;;4.47;3.10;;;1.40;95.60;;;;;;4941400;29;20414;-89
2021/04/27 00:47:26;;;;;;;5.80;3.40;;;1.30;95.90;;;;;;4940887;29;20837;-89
2021/04/27 00:49:56;;;;;;;4.93;3.03;;;1.20;96.50;;;;;;4940888;29;20449;-88
2021/04/27 00:52:23;;;;;;;4.97;3.70;;;1.20;97.00;;;;;;4942403;29;20179;-91
2021/04/27 00:54:51;;;;;;;5.53;3.30;;;1.00;97.30;;;;;;4944802;28;20445;-89
2021/04/27 00:57:17;;;;;;;5.60;3.03;;;1.00;97.30;;;;;;4940948;29;20423;-89
2021/04/27 00:59:42;;;;;;;7.83;3.50;;;0.90;97.30;;;;;;4952770;29;20462;-88
2021/04/27 01:02:08;;;;;;;3.90;3.10;;;0.90;97.30;;;;;;4957303;29;20422;-88
2021/04/27 01:04:34;;;;;;;5.10;3.30;;;0.90;97.30;;;;;;4957220;29;20175;-88
2021/04/27 01:07:02;;;;;;;3.97;3.07;;;0.90;97.30;;;;;;4957241;29;20725;-89
2021/04/27 01:09:38;;;;;;;6.60;4.40;;;0.90;97.30;;;;;;4958436;29;20542;-89
2021/04/27 01:12:23;;;;;;;6.30;3.50;;;0.90;97.30;;;;;;4957530;29;20902;-89
2021/04/27 01:14:58;;;;;;;5.23;3.23;;;0.90;97.30;;;;;;4957158;29;20816;-89
2021/04/27 01:17:24;;;;;;;5.87;4.10;;;0.80;97.30;;;;;;4957434;29;20501;-89
2021/04/27 01:20:08;;;;;;;6.37;4.80;;;0.80;97.30;;;;;;4957240;29;20862;-89
2021/04/27 01:22:52;;;;;;;9.47;4.57;;;0.80;97.30;;;;;;4957049;29;20423;-88
2021/04/27 01:25:29;;;;;;;5.57;3.80;;;0.70;97.30;;;;;;4958174;29;20437;-89
2021/04/27 01:27:55;;;;;;;9.10;3.80;;;0.70;97.30;;;;;;4957091;29;21080;-88
2021/04/27 01:30:21;;;;;;;7.10;3.70;;;0.70;97.30;;;;;;4956667;28;20461;-88
2021/04/27 01:32:49;;;;;;;4.60;3.70;;;0.70;97.30;;;;;;4957345;29;20249;-88
2021/04/27 01:35:15;;;;;;;6.70;3.50;;;0.70;97.30;;;;;;4956882;29;20502;-88
2021/04/27 01:37:41;;;;;;;8.90;3.40;;;0.80;97.30;;;;;;4957088;29;20521;-88
2021/04/27 01:40:07;;;;;;;3.83;3.17;;;0.80;96.70;;;;;;4957546;29;20230;-87
2021/04/27 01:42:33;;;;;;;6.03;4.10;;;0.80;96.30;;;;;;4957537;29;20175;-89
2021/04/27 01:44:59;;;;;;;7.50;3.67;;;0.80;96.00;;;;;;4957785;29;20460;-89
2021/04/27 01:47:25;;;;;;;6.40;3.93;;;0.80;95.70;;;;;;4957565;29;20523;-88
2021/04/27 01:49:51;;;;;;;8.33;3.83;;;0.80;95.60;;;;;;4957709;29;20289;-88
2021/04/27 01:52:17;;;;;;;6.93;3.47;;;0.80;95.30;;;;;;4957041;29;21017;-88
2021/04/27 01:54:43;;;;;;;7.10;3.63;;;0.80;95.30;;;;;;4956740;29;20175;-89
2021/04/27 01:57:08;;;;;;;4.57;4.00;;;0.80;95.50;;;;;;4956940;29;20261;-89
2021/04/27 01:59:34;;;;;;;6.53;3.90;;;0.80;95.60;;;;;;4957561;28;20254;-89
2021/04/27 02:02:00;;;;;;;5.43;3.57;;;0.80;95.30;;;;;;4940444;29;20187;-89
2021/04/27 02:04:29;;;;;;;7.97;4.77;;;0.70;95.20;;;;;;4958531;28;21024;-89
2021/04/27 02:06:55;;;;;;;6.00;4.67;;;0.70;95.30;;;;;;4942064;29;20577;-88
2021/04/27 02:45:31;;;;;;;8.00;3.90;;;0.40;96.40;;;;;;4935202;29;20884;-88
2021/04/27 02:48:12;;;;;;;7.90;4.13;;;0.40;96.30;;;;;;4919660;29;20499;-89
2021/04/27 02:50:42;;;;;;;4.77;3.40;;;0.40;96.20;;;;;;4920197;29;20953;-85
2021/04/27 02:53:09;;;;;;;6.43;3.60;;;0.40;96.00;;;;;;4919701;29;20419;-89
2021/04/27 02:55:35;;;;;;;5.17;3.60;;;0.40;96.10;;;;;;4919407;29;20838;-89
2021/04/27 02:58:00;;;;;;;4.43;3.70;;;0.30;96.10;;;;;;4938026;29;20408;-89
2021/04/27 03:00:26;;;;;;;6.90;3.83;;;0.30;95.70;;;;;;4918895;29;20185;-90
2021/04/27 03:02:52;;;;;;;5.40;4.17;;;0.30;95.50;;;;;;4935708;29;20210;-89
2021/04/27 03:05:18;;;;;;;6.20;4.40;;;0.30;95.50;;;;;;4919962;29;20483;-88
2021/04/27 03:07:43;;;;;;;7.03;4.37;;;0.20;95.50;;;;;;4919762;29;20222;-88
2021/04/27 03:10:09;;;;;;;8.50;4.17;;;0.20;95.50;;;;;;4919835;29;20548;-86
2021/04/27 03:12:35;;;;;;;6.40;4.10;;;0.20;95.70;;;;;;4936117;29;20652;-88
2021/04/27 03:15:03;;;;;;;6.30;3.90;;;0.10;95.90;;;;;;4918358;29;20462;-88
2021/04/27 03:17:29;;;;;;;4.90;4.07;;;0.10;96.00;;;;;;4923662;29;20421;-88
2021/04/27 03:19:54;;;;;;;6.63;4.00;;;0.10;95.90;;;;;;4917742;29;20447;-88
2021/04/27 03:22:20;;;;;;;5.93;4.10;;;0.10;96.10;;;;;;4918085;29;20275;-88
2021/04/27 03:24:48;;;;;;;10.43;4.43;;;0.10;96.10;;;;;;4917711;29;20298;-88
2021/04/27 03:27:14;;;;;;;6.00;3.83;;;0.10;96.10;;;;;;4918417;29;20208;-89
2021/04/27 03:29:39;;;;;;;7.27;4.10;;;0.10;96.10;;;;;;4935468;29;20970;-87
2021/04/27 03:32:06;;;;;;;5.93;4.33;;;0.10;96.00;;;;;;4918195;29;20446;-86
2021/04/27 03:34:31;;;;;;;8.13;4.07;;;0.10;96.00;;;;;;4917896;29;20475;-89
2021/04/27 03:36:57;;;;;;;7.90;3.87;;;0.10;96.00;;;;;;4918560;29;20180;-89
2021/04/27 03:39:23;;;;;;;5.00;4.20;;;0.00;96.00;;;;;;4916987;29;20204;-90
2021/04/27 03:41:49;;;;;;;6.97;3.90;;;0.00;96.10;;;;;;4918141;29;20188;-88
2021/04/27 03:44:14;;;;;;;5.83;4.37;;;0.00;96.10;;;;;;4918112;29;20259;-89
2021/04/27 03:46:40;;;;;;;8.07;4.07;;;0.00;96.20;;;;;;4933849;29;20695;-88
2021/04/27 03:49:05;;;;;;;13.20;4.87;;;0.00;96.30;;;;;;4935020;29;20191;-89
2021/04/27 03:51:31;;;;;;;7.90;4.30;;;0.00;96.30;;;;;;4917968;29;20342;-88
2021/04/27 03:53:57;;;;;;;7.67;4.23;;;0.00;96.40;;;;;;4935384;29;20176;-88
2021/04/27 03:56:22;;;;;;;10.53;4.37;;;0.00;96.40;;;;;;4918218;29;20231;-88
2021/04/27 03:58:48;;;;;;;8.33;4.20;;;0.00;96.50;;;;;;4918288;29;20222;-89
2021/04/27 04:01:14;;;;;;;6.43;4.17;;;0.00;96.60;;;;;;4934266;29;20179;-89
2021/04/27 04:03:41;;;;;;;5.90;4.27;;;0.00;96.70;;;;;;4935492;29;20656;-89
2021/04/27 04:06:07;;;;;;;9.83;4.00;;;0.00;96.70;;;;;;4919029;29;20396;-89
2021/04/27 04:08:32;;;;;;;7.63;4.23;;;0.00;96.90;;;;;;4919731;29;20440;-89
2021/04/27 04:10:58;;;;;;;5.93;4.17;;;0.00;96.70;;;;;;4919058;29;20208;-88
2021/04/27 04:13:24;;;;;;;11.43;4.33;;;0.00;96.60;;;;;;4918667;29;20172;-89
2021/04/27 04:15:50;;;;;;;8.27;4.40;;;0.00;96.60;;;;;;4920316;29;20459;-88
2021/04/27 04:18:16;;;;;;;9.50;4.47;;;0.00;96.60;;;;;;4920238;29;20214;-90
2021/04/27 04:20:42;;;;;;;8.40;4.30;;;0.10;96.60;;;;;;4919732;29;20194;-89
2021/04/27 04:23:07;;;;;;;10.63;4.30;;;0.10;96.60;;;;;;4919712;29;20828;-89
2021/04/27 04:25:33;;;;;;;6.50;4.10;;;0.10;96.60;;;;;;4919505;29;20677;-88
2021/04/27 04:38:52;;;;;;;9.67;4.53;;;0.40;96.40;;;;;;4954917;28;20494;-89
2021/04/27 04:41:33;;;;;;;7.97;4.30;;;0.40;96.30;;;;;;4938990;29;21021;-87
2021/04/27 04:44:01;;;;;;;5.30;4.10;;;0.50;96.20;;;;;;4938682;28;20484;-88
2021/04/27 04:46:29;;;;;;;8.07;4.37;;;0.60;96.10;;;;;;4938310;29;20415;-87
2021/04/27 04:48:54;;;;;;;7.97;4.03;;;0.60;96.00;;;;;;4938581;29;20423;-87
2021/04/27 04:51:20;;;;;;;8.30;3.97;;;0.70;95.80;;;;;;4993704;23;20607;-87
2021/04/27 04:53:46;;;;;;;8.63;4.67;;;0.70;95.60;;;;;;4957500;28;20175;-87
2021/04/27 04:56:11;;;;;;;8.57;4.60;;;0.80;95.60;;;;;;4957756;28;20550;-87
2021/04/27 04:58:37;;;;;;;6.90;4.20;;;0.90;95.40;;;;;;4958295;28;20174;-86
2021/04/27 05:01:03;;;;;;;7.00;4.33;;;0.90;95.30;;;;;;4958153;28;20198;-87
2021/04/27 05:03:29;;;;;;;8.27;4.40;;;1.00;95.00;;;;;;4958348;28;20848;-86
2021/04/27 05:05:54;;;;;;;8.50;4.20;;;1.10;94.70;;;;;;4961707;28;20418;-86
2021/04/27 05:08:27;;;;;;;7.00;3.90;;;1.20;94.60;;;;;;4978952;28;20453;-87
2021/04/27 05:10:52;;;;;;;6.97;4.57;;;1.30;94.50;;;;;;4961577;28;20226;-86
2021/04/27 05:13:18;;;;;;;7.80;4.20;;;1.40;94.00;;;;;;4961724;28;20459;-86
2021/04/27 05:15:44;;;;;;;6.17;4.07;;;1.50;93.80;;;;;;4961725;28;20208;-86
2021/04/27 05:18:10;;;;;;;9.60;4.77;;;1.60;93.60;;;;;;4961309;28;20221;-87
2021/04/27 05:20:36;;;;;;;9.20;4.13;;;1.70;93.20;;;;;;4961654;28;20512;-87
2021/04/27 05:23:01;;;;;;;7.37;3.73;;;1.80;92.90;;;;;;4961663;28;20428;-86
2021/04/27 05:25:30;;;;;;;9.47;4.20;;;1.90;92.80;;;;;;4961378;28;20189;-86
2021/04/27 05:27:56;;;;;;;6.23;4.00;;;2.00;92.60;;;;;;4961351;28;20305;-86
2021/04/27 05:30:22;;;;;;;15.13;4.13;;;2.10;92.50;;;;;;4979018;28;20972;-85
2021/04/27 05:32:48;;;;;;;6.40;3.87;;;2.10;92.40;;;;;;4961368;28;20218;-86
2021/04/27 05:35:14;;;;;;;9.23;4.40;;;2.20;92.20;;;;;;4961190;28;20429;-87
2021/04/27 05:37:39;;;;;;;8.60;4.20;;;2.30;92.20;;;;;;4961177;28;20657;-87
2021/04/27 05:40:06;;;;;;;9.70;4.63;;;2.30;92.20;;;;;;4960669;28;20453;-87
2021/04/27 05:42:32;;;;;;;9.50;4.50;;;2.40;92.20;;;;;;4944925;28;20430;-87
2021/04/27 05:45:00;;;;;;;11.17;3.93;;;2.50;92.20;;;;;;4960887;28;21129;-86
2021/04/27 05:47:25;;;;;;;7.93;4.17;;;2.60;92.00;;;;;;4960775;28;20582;-86
2021/04/27 05:49:51;;;;;;;9.93;4.60;;;2.70;92.10;;;;;;4978163;28;20465;-86
2021/04/27 05:52:16;;;;;;;8.83;4.57;;;2.80;92.30;;;;;;4959813;28;20179;-86
2021/04/27 05:54:42;;;;;;;11.73;4.97;;;2.80;91.80;;;;;;4959557;28;20273;-86
2021/04/27 05:57:08;;;;;;;9.40;4.87;;;2.90;92.00;;;;;;4959479;28;20178;-86
2021/04/27 05:59:34;;;;;;;6.90;4.47;;;3.00;91.60;;;;;;4961363;28;20681;-86
2021/04/27 06:01:59;;;;;;;13.13;5.10;;;3.10;91.60;;;;;;4961239;28;20186;-86
2021/04/27 06:04:26;;;;;;;7.37;4.67;;;3.20;91.30;;;;;;4965362;28;20416;-88
2021/04/27 06:06:52;;;;;;;7.37;4.33;;;3.30;91.10;;;;;;4976377;28;20211;-86
2021/04/27 06:09:17;;;;;;;9.13;4.60;;;3.40;91.00;;;;;;4962526;28;20425;-86
2021/04/27 06:11:44;;;;;;;8.30;4.73;;;3.50;90.60;;;;;;4959831;28;20425;-86
2021/04/27 06:14:10;;;;;;;8.83;5.10;;;3.60;90.30;;;;;;4976844;28;20202;-86
2021/04/27 06:16:36;;;;;;;9.13;4.70;;;3.80;90.40;;;;;;4958499;28;20929;-86
2021/04/27 06:19:02;;;;;;;8.47;4.20;;;3.90;89.90;;;;;;4959246;28;20646;-86
2021/04/27 06:21:28;;;;;;;10.90;4.70;;;4.00;90.00;;;;;;4976693;28;20476;-86
2021/04/27 06:23:53;;;;;;;13.80;4.40;;;4.20;89.40;;;;;;4959070;28;20453;-86
2021/04/27 06:26:22;;;;;;;8.10;4.13;;;4.30;89.20;;;;;;4959151;28;20174;-86
2021/04/27 06:28:48;;;;;;;9.43;4.43;;;4.50;88.80;;;;;;4959251;28;20262;-86
2021/04/27 06:31:14;;;;;;;10.63;4.30;;;4.60;88.40;;;;;;4959188;28;20475;-86
2021/04/27 06:33:39;;;;;;;7.40;4.50;;;4.70;88.50;;;;;;4959054;28;20485;-86
2021/04/27 06:36:05;;;;;;;6.30;3.80;;;4.90;88.20;;;;;;4958916;28;20265;-86
2021/04/27 06:38:31;;;;;;;12.43;4.30;;;5.00;87.90;;;;;;4958838;28;20277;-85
2021/04/27 06:40:57;;;;;;;7.83;4.23;;;5.10;87.60;;;;;;4958808;28;20481;-86
2021/04/27 06:43:23;;;;;;;9.63;4.60;;;5.20;87.70;;;;;;4976464;28;20418;-86
2021/04/27 06:45:49;;;;;;;9.23;4.10;;;5.30;87.70;;;;;;4959802;28;20321;-87
2021/04/27 06:48:15;;;;;;;8.87;4.40;;;5.40;87.10;;;;;;4960586;28;20489;-86
2021/04/27 06:50:42;;;;;;;6.47;3.83;;;5.50;87.20;;;;;;4960537;28;20498;-86
2021/04/27 06:53:08;;;;;;;10.90;4.40;;;5.60;87.30;;;;;;4960152;28;20413;-86
2021/04/27 06:55:35;;;;;;;10.50;4.70;;;5.70;87.00;;;;;;4959804;28;20422;-86
2021/04/27 06:58:06;;;;;;;8.83;4.40;;;5.90;86.80;;;;;;4961422;28;21023;-87
2021/04/27 07:00:33;;;;;;;7.17;4.17;;;6.00;86.10;;;;;;4961292;28;21044;-87
2021/04/27 07:02:59;;;;;;;10.47;4.37;;;6.10;85.00;;;;;;4978499;28;20414;-86
2021/04/27 07:05:25;;;;;;;10.87;5.13;;;6.10;85.10;;;;;;4960860;28;20837;-86
2021/04/27 07:07:51;;;;;;;9.83;3.70;;;6.20;85.10;;;;;;4960038;28;20293;-86
2021/04/27 07:10:17;;;;;;;11.47;5.30;;;6.30;85.90;;;;;;4978051;28;20226;-87
2021/04/27 07:12:43;;;;;;;13.00;4.70;;;6.60;86.20;;;;;;4961815;28;20558;-86
2021/04/27 07:15:09;;;;;;;8.03;4.77;;;6.70;85.00;;;;;;4959806;28;20182;-86
2021/04/27 07:17:35;;;;;;;7.43;4.30;;;6.90;83.90;;;;;;4960292;28;20179;-86
2021/04/27 07:20:00;;;;;;;8.63;4.43;;;7.00;83.10;;;;;;4959799;28;20460;-86
2021/04/27 07:22:29;;;;;;;6.97;4.40;;;7.10;83.10;;;;;;4959818;28;20202;-86
2021/04/27 07:24:56;;;;;;;9.40;4.30;;;7.20;82.30;;;;;;4959754;28;20229;-87
2021/04/27 07:27:22;;;;;;;9.17;4.10;;;7.30;82.60;;;;;;4959378;28;20465;-86
2021/04/27 07:29:48;;;;;;;8.07;3.70;;;7.40;82.20;;;;;;4960885;28;21044;-87
2021/04/27 07:32:14;;;;;;;11.07;3.97;;;7.50;80.90;;;;;;4959600;28;20438;-86
2021/04/27 07:34:40;;;;;;;10.10;3.37;;;7.60;80.80;;;;;;4958925;28;20661;-86
2021/04/27 07:37:06;;;;;;;8.40;3.97;;;7.80;81.90;;;;;;4958738;28;20426;-86
2021/04/27 07:39:32;;;;;;;8.47;3.57;;;8.10;80.70;;;;;;4958482;28;20466;-86
2021/04/27 07:41:58;;;;;;;4.27;3.00;;;8.30;79.10;;;;;;4958509;28;20184;-86
2021/04/27 07:44:24;;;;;;;7.53;3.57;;;8.50;78.80;;;;;;4958717;28;20429;-86
2021/04/27 07:46:50;;;;;;;19.77;4.27;;;8.70;77.90;;;;;;4958540;28;20198;-86
2021/04/27 07:49:15;;;;;;;5.77;3.20;;;8.70;75.20;;;;;;4957969;28;20414;-86
2021/04/27 07:51:41;;;;;;;4.00;2.53;;;8.70;74.90;;;;;;4958198;28;20178;-86
2021/04/27 07:54:08;;;;;;;4.90;2.83;;;8.70;74.60;;;;;;4958223;28;20282;-86
2021/04/27 07:56:34;;;;;;;6.60;2.87;;;8.80;74.10;;;;;;4957750;28;20181;-87
2021/04/27 07:59:03;;;;;;;9.37;3.53;;;8.80;73.00;;;;;;4957871;28;20418;-86
2021/04/27 08:01:30;;;;;;;6.63;3.17;;;8.90;74.00;;;;;;4975134;28;20186;-86
2021/04/27 08:03:55;;;;;;;5.70;2.70;;;9.00;72.30;;;;;;4958228;28;20484;-87
2021/04/27 08:06:21;;;;;;;5.20;2.90;;;9.10;71.50;;;;;;4957990;28;20426;-87
2021/04/27 08:08:47;;;;;;;5.50;2.90;;;9.20;72.10;;;;;;4975122;28;20206;-86
2021/04/27 08:11:13;;;;;;;8.40;2.77;;;9.30;70.80;;;;;;4975155;28;20689;-87
2021/04/27 08:13:38;;;;;;;4.23;2.23;;;9.30;70.70;;;;;;4957939;28;20493;-87
2021/04/27 08:16:04;;;;;;;3.13;2.17;;;9.40;69.50;;;;;;4957972;28;20210;-87
2021/04/27 08:18:31;;;;;;;4.50;2.20;;;9.30;69.50;;;;;;4956986;28;20190;-86
2021/04/27 08:20:59;;;;;;;4.90;2.80;;;9.40;69.90;;;;;;4956817;28;21019;-86
2021/04/27 08:23:25;;;;;;;4.03;2.40;;;9.60;70.60;;;;;;4956779;28;20425;-86
2021/04/27 08:25:50;;;;;;;4.53;2.30;;;9.70;69.80;;;;;;4956979;28;20493;-87
2021/04/27 08:28:16;;;;;;;8.60;2.67;;;9.70;70.20;;;;;;4956998;28;20202;-86
2021/04/27 08:30:42;;;;;;;4.60;2.63;;;9.80;69.10;;;;;;4956786;28;20294;-87
2021/04/27 08:33:07;;;;;;;7.77;2.70;;;9.80;68.50;;;;;;4956793;28;20232;-86
2021/04/27 08:35:33;;;;;;;6.00;2.50;;;9.80;68.90;;;;;;4957864;28;20241;-86
2021/04/27 08:37:58;;;;;;;4.70;2.80;;;9.90;69.40;;;;;;4957814;28;20189;-87
2021/04/27 08:40:24;;;;;;;3.57;2.77;;;10.10;67.40;;;;;;4960485;28;20202;-86
2021/04/27 08:42:50;;;;;;;8.47;2.90;;;10.10;67.40;;;;;;4961748;28;20269;-86
2021/04/27 08:45:18;;;;;;;7.23;2.93;;;10.10;67.70;;;;;;4961695;28;20650;-86
2021/04/27 08:47:44;;;;;;;6.13;2.70;;;10.10;68.80;;;;;;4960928;28;20458;-86
2021/04/27 08:50:12;;;;;;;5.00;2.57;;;10.10;67.80;;;;;;4960656;28;21253;-87
2021/04/27 08:52:38;;;;;;;4.00;3.00;;;10.10;67.20;;;;;;4960839;28;20848;-86
2021/04/27 08:55:06;;;;;;;3.80;2.70;;;10.20;69.20;;;;;;4960987;28;20418;-86
2021/04/27 08:57:33;;;;;;;3.47;2.53;;;10.50;68.30;;;;;;4978175;28;20241;-86
2021/04/27 08:59:59;;;;;;;6.87;2.80;;;10.60;67.30;;;;;;4960488;28;20951;-86
2021/04/27 09:02:31;;;;;;;4.23;2.77;;;10.70;67.90;;;;;;4961082;28;20425;-87
2021/04/27 09:04:58;;;;;;;4.67;2.87;;;10.90;66.70;;;;;;4978408;28;20971;-86
2021/04/27 09:07:26;;;;;;;7.40;3.03;;;10.90;67.20;;;;;;4961326;28;20465;-86
2021/04/27 09:09:54;;;;;;;6.00;2.63;;;11.00;66.80;;;;;;4962085;28;20433;-87
2021/04/27 09:12:29;;;;;;;4.97;2.63;;;11.10;66.40;;;;;;4962137;28;20506;-87
2021/04/27 09:14:56;;;;;;;4.10;2.80;;;11.20;66.60;;;;;;4962852;28;20417;-87
2021/04/27 09:17:29;;;;;;;5.70;3.10;;;11.20;65.90;;;;;;4980609;28;21150;-86
2021/04/27 09:19:59;;;;;;;4.80;2.80;;;11.10;64.80;;;;;;4962379;28;20593;-86
2021/04/27 09:22:28;;;;;;;4.63;2.83;;;11.00;66.10;;;;;;4962606;28;20418;-87
2021/04/27 09:25:01;;;;;;;7.80;3.10;;;11.20;65.70;;;;;;4962435;28;20457;-87
2021/04/27 09:27:27;;;;;;;5.33;2.70;;;11.20;65.80;;;;;;4979355;28;20465;-87
2021/04/27 09:29:53;;;;;;;5.97;2.87;;;11.20;65.60;;;;;;4961964;28;20433;-87
2021/04/27 09:32:35;;;;;;;5.37;3.27;;;11.20;65.10;;;;;;4961758;28;20183;-87
2021/04/27 09:35:26;;;;;;;6.10;2.97;;;11.10;65.90;;;;;;4961701;28;20432;-86
2021/04/27 09:38:06;;;;;;;3.40;2.50;;;11.30;65.70;;;;;;4961710;28;20435;-87
2021/04/27 09:40:31;;;;;;;10.00;2.73;;;11.40;63.70;;;;;;4979082;28;20438;-86
2021/04/27 09:43:06;;;;;;;5.13;2.53;;;11.50;65.20;;;;;;4962141;28;20508;-87
2021/04/27 09:45:42;;;;;;;8.17;2.70;;;11.50;62.80;;;;;;4962106;28;20264;-87
2021/04/27 09:48:09;;;;;;;4.93;2.70;;;11.60;63.20;;;;;;4978720;28;20511;-87
2021/04/27 09:50:35;;;;;;;4.80;2.40;;;11.50;62.80;;;;;;4961050;28;20545;-87
2021/04/27 09:53:01;;;;;;;7.23;2.80;;;11.50;63.00;;;;;;4978109;28;20414;-86
2021/04/27 09:55:31;;;;;;;3.80;2.77;;;11.60;63.50;;;;;;4978151;28;20411;-87
2021/04/27 09:57:57;;;;;;;5.93;2.93;;;11.70;63.60;;;;;;4960373;28;20422;-87
2021/04/27 10:00:39;;;;;;;6.67;3.03;;;11.80;64.70;;;;;;4977436;28;20461;-87
2021/04/27 10:03:09;;;;;;;5.33;2.97;;;12.10;64.80;;;;;;4977831;28;20394;-86
2021/04/27 10:05:38;;;;;;;4.03;3.00;;;12.20;63.30;;;;;;4960442;28;20484;-87
2021/04/27 10:08:05;;;;;;;4.33;2.77;;;12.30;63.30;;;;;;4963253;28;21091;-87
2021/04/27 10:10:33;;;;;;;4.67;2.90;;;12.40;65.00;;;;;;4960083;28;21208;-87
2021/04/27 10:13:00;;;;;;;5.80;2.97;;;12.60;63.50;;;;;;4977441;28;20406;-87
2021/04/27 10:15:29;;;;;;;5.63;2.67;;;12.60;63.50;;;;;;4959844;28;20418;-87
2021/04/27 10:18:04;;;;;;;7.50;3.03;;;12.60;64.80;;;;;;4959984;28;20418;-87
2021/04/27 10:20:31;;;;;;;7.70;3.17;;;12.60;64.30;;;;;;4960076;28;20526;-87
2021/04/27 10:22:58;;;;;;;4.50;3.00;;;12.60;64.00;;;;;;4959972;28;20497;-87
2021/04/27 10:25:30;;;;;;;5.23;3.20;;;12.60;63.20;;;;;;4959899;28;20449;-87
2021/04/27 10:28:06;;;;;;;5.33;3.23;;;12.70;64.10;;;;;;4977452;28;20520;-87
2021/04/27 10:30:47;;;;;;;4.40;2.63;;;12.70;63.30;;;;;;4959899;28;20446;-87
2021/04/27 10:33:19;;;;;;;4.23;2.93;;;12.70;63.00;;;;;;4959496;28;20449;-86
2021/04/27 10:36:08;;;;;;;4.90;2.93;;;12.80;62.70;;;;;;4958722;28;20971;-87
2021/04/27 10:38:45;;;;;;;9.10;3.20;;;13.00;62.40;;;;;;4958192;28;21004;-86
2021/04/27 10:41:13;;;;;;;9.43;2.67;;;13.10;63.60;;;;;;4958268;28;20446;-87
2021/04/27 10:43:42;;;;;;;5.33;2.27;;;13.20;62.90;;;;;;4958390;28;20473;-87
2021/04/27 10:46:16;;;;;;;6.53;3.10;;;13.40;63.10;;;;;;4958476;28;20425;-87
2021/04/27 10:48:47;;;;;;;4.63;2.50;;;13.70;64.20;;;;;;4958091;28;21029;-86
2021/04/27 10:51:22;;;;;;;8.40;3.60;;;14.00;63.10;;;;;;4967177;23;20503;-75
2021/04/27 10:54:04;;;;;;;9.63;2.70;;;14.00;61.10;;;;;;4937446;29;20423;-74
2021/04/27 10:57:10;;;;;;;4.47;3.10;;;13.80;60.90;;;;;;4937730;29;20781;-74
2021/04/27 10:59:55;;;;;;;4.87;2.70;;;13.70;61.00;;;;;;4937254;29;20411;-72
2021/04/27 11:02:30;;;;;;;3.70;2.60;;;13.60;62.20;;;;;;4936326;29;20431;-73
2021/04/27 11:05:02;;;;;;;4.60;2.70;;;13.70;61.80;;;;;;4937462;29;20421;-74
2021/04/27 11:07:28;;;;;;;4.60;2.93;;;13.90;62.10;;;;;;4937533;29;20462;-74
2021/04/27 11:09:59;;;;;;;8.00;3.20;;;14.10;61.60;;;;;;4937160;29;20797;-74
2021/04/27 11:12:44;;;;;;;5.90;3.30;;;14.00;60.80;;;;;;4937248;29;20202;-73
2021/04/27 11:15:18;;;;;;;3.90;2.87;;;13.80;60.90;;;;;;4936896;29;20442;-73
2021/04/27 11:18:12;;;;;;;4.13;2.80;;;13.90;60.80;;;;;;4936899;28;20414;-73
2021/04/27 11:21:05;;;;;;;7.70;2.73;;;14.10;62.20;;;;;;4936905;29;21040;-74
2021/04/27 11:23:37;;;;;;;4.70;2.90;;;14.30;60.40;;;;;;4936534;29;20407;-74
2021/04/27 11:26:31;;;;;;;7.33;2.90;;;14.30;60.30;;;;;;4953846;29;20414;-75
2021/04/27 11:29:04;;;;;;;4.00;2.30;;;14.00;61.00;;;;;;4936120;29;20521;-74
2021/04/27 11:31:30;;;;;;;5.40;3.30;;;13.90;60.40;;;;;;4936711;29;20530;-74
2021/04/27 11:34:00;;;;;;;5.07;3.20;;;13.90;62.40;;;;;;4936733;29;20795;-73
2021/04/27 11:36:38;;;;;;;6.40;3.10;;;14.20;63.40;;;;;;4935969;29;20418;-74
2021/04/27 11:39:12;;;;;;;3.93;2.93;;;14.50;62.20;;;;;;4936579;29;20864;-75
2021/04/27 11:41:46;;;;;;;6.33;3.27;;;14.40;60.30;;;;;;4936414;29;20439;-74
2021/04/27 11:44:12;;;;;;;8.30;3.03;;;14.20;61.80;;;;;;4936150;29;20419;-74
2021/04/27 11:46:58;;;;;;;4.93;2.70;;;14.20;62.20;;;;;;4936718;29;20824;-73
2021/04/27 11:49:46;;;;;;;5.97;3.27;;;14.60;63.20;;;;;;4952721;29;20407;-74
2021/04/27 11:52:12;;;;;;;7.80;3.80;;;14.80;61.10;;;;;;4936186;29;20462;-74
2021/04/27 11:54:38;;;;;;;4.50;3.47;;;15.10;62.60;;;;;;4936573;29;20442;-74
2021/04/27 11:57:12;;;;;;;4.70;3.03;;;15.10;61.00;;;;;;4935551;29;20415;-73
2021/04/27 11:59:38;;;;;;;7.27;3.13;;;15.20;61.80;;;;;;4936279;29;21124;-73
2021/04/27 12:02:03;;;;;;;4.97;2.80;;;15.30;61.00;;;;;;4935727;29;20454;-74
2021/04/27 12:04:31;;;;;;;3.80;3.20;;;15.30;59.90;;;;;;4935832;29;20215;-74
2021/04/27 12:07:00;;;;;;;4.60;3.23;;;15.10;59.20;;;;;;4936617;29;20207;-74
2021/04/27 12:09:26;;;;;;;5.40;3.50;;;15.00;60.40;;;;;;4935311;29;20485;-74
2021/04/27 12:11:52;;;;;;;4.03;2.73;;;14.80;59.80;;;;;;4935833;29;20443;-73
2021/04/27 12:14:18;;;;;;;4.70;3.23;;;14.70;60.10;;;;;;4935932;29;20443;-73
2021/04/27 12:16:46;;;;;;;10.43;3.90;;;15.00;61.70;;;;;;4952580;29;20176;-74
2021/04/27 12:19:12;;;;;;;6.77;3.57;;;15.40;61.30;;;;;;4953440;29;20171;-74
2021/04/27 12:21:43;;;;;;;7.50;3.60;;;15.90;63.40;;;;;;4953092;29;20429;-73
2021/04/27 12:24:24;;;;;;;5.97;3.40;;;16.00;60.30;;;;;;4952634;29;20411;-74
2021/04/27 12:26:57;;;;;;;8.17;3.90;;;16.20;61.40;;;;;;4936157;29;20531;-75
2021/04/27 12:29:24;;;;;;;9.53;3.80;;;16.30;60.20;;;;;;4935383;29;20414;-74
2021/04/27 12:31:51;;;;;;;7.13;3.87;;;16.50;60.20;;;;;;4952624;29;21006;-75
2021/04/27 12:34:16;;;;;;;4.83;3.80;;;16.50;59.10;;;;;;4936050;29;20929;-74
2021/04/27 12:36:45;;;;;;;4.10;3.20;;;16.50;59.90;;;;;;4934895;29;20426;-74
2021/04/27 12:39:20;;;;;;;5.07;3.67;;;16.00;58.90;;;;;;4935802;29;20241;-74
2021/04/27 12:41:46;;;;;;;5.73;3.50;;;15.50;59.30;;;;;;4935580;29;21036;-74
2021/04/27 12:44:33;;;;;;;4.50;3.30;;;15.40;60.40;;;;;;4935020;29;20426;-74
2021/04/27 12:47:05;;;;;;;5.97;4.00;;;15.40;60.00;;;;;;4935996;29;21106;-74
2021/04/27 12:49:33;;;;;;;12.20;3.47;;;15.40;60.40;;;;;;4952404;29;20434;-74
2021/04/27 12:52:15;;;;;;;4.93;3.10;;;15.60;60.30;;;;;;4935164;29;20992;-74
2021/04/27 12:54:42;;;;;;;6.40;3.80;;;15.50;58.70;;;;;;4935818;29;20419;-76
2021/04/27 12:57:16;;;;;;;4.40;3.10;;;15.60;60.00;;;;;;4952212;28;20820;-74
2021/04/27 12:59:45;;;;;;;8.10;3.20;;;16.00;59.30;;;;;;4935509;29;20415;-75
2021/04/27 13:02:20;;;;;;;9.10;3.70;;;16.10;59.50;;;;;;4935342;29;20458;-75
2021/04/27 13:04:48;;;;;;;6.10;3.80;;;16.10;59.70;;;;;;4934970;29;20422;-75
2021/04/27 13:07:25;;;;;;;8.00;3.70;;;15.80;58.50;;;;;;4935279;29;20482;-74
2021/04/27 13:09:53;;;;;;;5.63;3.47;;;15.40;59.70;;;;;;4935391;29;21000;-74
2021/04/27 13:12:20;;;;;;;10.17;3.50;;;15.10;59.30;;;;;;4935107;29;20439;-74
2021/04/27 13:14:56;;;;;;;5.37;3.37;;;14.80;60.10;;;;;;4935703;29;20415;-74
2021/04/27 13:17:43;;;;;;;3.50;3.30;;;14.50;60.80;;;;;;4935177;29;20957;-75
2021/04/27 13:20:18;;;;;;;4.60;3.37;;;14.30;60.40;;;;;;4953219;28;20502;-74
2021/04/27 13:22:57;;;;;;;8.40;3.80;;;14.40;60.50;;;;;;4952220;28;20449;-76
2021/04/27 13:25:31;;;;;;;7.10;3.70;;;14.80;61.20;;;;;;4936692;29;20438;-74
2021/04/27 13:28:02;;;;;;;7.70;4.30;;;15.50;61.40;;;;;;4939136;29;20504;-74
2021/04/27 13:30:31;;;;;;;6.67;3.60;;;16.00;61.10;;;;;;4955540;29;20495;-75
2021/04/27 13:33:08;;;;;;;6.93;3.63;;;16.70;61.00;;;;;;4938053;28;20478;-74
2021/04/27 13:35:41;;;;;;;6.13;3.47;;;17.20;59.00;;;;;;4938920;29;20426;-74
2021/04/27 13:38:09;;;;;;;5.30;3.40;;;17.20;58.10;;;;;;4938099;29;20430;-75
2021/04/27 13:40:36;;;;;;;7.00;3.60;;;17.20;57.70;;;;;;4955647;28;20934;-75
2021/04/27 13:43:05;;;;;;;5.93;4.23;;;17.00;58.90;;;;;;4938515;29;20426;-74
2021/04/27 13:45:32;;;;;;;5.60;3.27;;;17.20;58.70;;;;;;4954793;29;20415;-75
2021/04/27 13:48:04;;;;;;;4.97;3.33;;;17.30;58.20;;;;;;4955709;29;20970;-74